KTKIKADS

Guest
Details From KTKI - COLLIN CO RGNL AT MC KINNEY
To KADS - ADDISON
Flight Number -
Tags generated
Created
Modified
Stats Distance 29 nm / 54 km
Max Altitude 1,200 ft / 366 m
Waypoints 3
Social Downloads 1
Likes 0
Share VATSIM

Download

Looking for another format? Having issues loading an existing format? Contact us
Advertisement - Login to hide

Notes

Basic altitude profile: - Ascent Rate: 2500ft/min - Ascent Speed: 250kts - Cruise Altitude: 35000ft - Cruise Speed: 420kts - Descent Rate: 1500ft/min - Descent Speed: 250kts

Route

KTKI CVE KADS

ID Type Via Altitude Latitude Longitude Leg Dist Tot Dist Heading (true) Name
O KTKI APT - 0 ft / 0 m 33.17749˚ -96.58961˚ - 0 nm - COLLIN CO RGNL AT MC KINNEY
CVE VOR - 1,200 ft / 366 m 32.89031˚ -96.90397˚ 23 nm 23 nm 223° / 222° COWBOY VOR-DME
O KADS APT - 0 ft / 0 m 32.96856˚ -96.83645˚ 5 nm 29 nm 36° / 36° ADDISON

Altitude Profile

Advertisement - Login to hide

KTKI

Details ICAO KTKI (TKI)
Name COLLIN CO RGNL AT MC KINNEY
Region United States
Timezone America/Chicago (UTC-6.0)
Stats Elevation 584 ft / 178 m (AMSL)
Location 33.177492° -96.589608°
Runways 2
Magnetic Variation 3.160° E

METAR

KTKI 111253Z 00000KT 10SM CLR M01/M04 A3025 RMK AO2 SLP255 T10061039

Decode

TAF

Not found

Departure Runways

ID Width Length Bearing (true) Bearing (mag) Surface Threshold Offset Overrun Length
17 100 ft / 30 m 7,020 ft / 2,140 m 182.10° 178.94° Asphalt 0 ft / 0 m 0 ft / 0 m
18 150 ft / 46 m 7,009 ft / 2,136 m 182.10° 178.94° Asphalt 0 ft / 0 m 0 ft / 0 m
35 100 ft / 30 m 7,020 ft / 2,140 m 2.10° 358.94° Asphalt 0 ft / 0 m 0 ft / 0 m
36 150 ft / 46 m 7,009 ft / 2,136 m 2.10° 358.94° Asphalt 0 ft / 0 m 0 ft / 0 m

KADS

Details ICAO KADS (ADS)
Name ADDISON
Region United States
Timezone America/Chicago (UTC-6.0)
Stats Elevation 644 ft / 196 m (AMSL)
Location 32.968558° -96.836454°
Runways 1
Magnetic Variation 3.313° E

METAR

KADS 111247Z 00000KT 13SM SKC 06/M04 A3026

Decode

TAF

Not found

Destination Runways

ID Width Length Bearing (true) Bearing (mag) Surface Threshold Offset Overrun Length
15 100 ft / 30 m 7,218 ft / 2,200 m 159.87° 156.56° Asphalt 979 ft / 298 m 0 ft / 0 m
33 100 ft / 30 m 7,218 ft / 2,200 m 339.87° 336.56° Asphalt 771 ft / 235 m 0 ft / 0 m

Approach Navaids

Runway Type Ident Frequency Range Bearing (true) Bearing (mag) Slope Elevation
15 Localiser IADS 110.10 MHz 18 nm / 33 km 159.87° 156.56° - 630 ft / 192 m (AMSL)
15 Glidescope IADS 110.10 MHz 10 nm / 19 km 159.87° 156.56° 3.00° 629 ft / 192 m (AMSL)
15 DME IADS 110.10 MHz 18 nm / 33 km - - - 643 ft / 196 m (AMSL)
33 Localiser ITBQ 110.10 MHz 18 nm / 33 km 339.87° 336.56° - 639 ft / 195 m (AMSL)
33 Glidescope ITBQ 110.10 MHz 10 nm / 19 km 339.87° 336.56° 3.00° 645 ft / 197 m (AMSL)
33 DME ITBQ 110.10 MHz 18 nm / 33 km - - - 643 ft / 196 m (AMSL)